createdAt,value
2019-01-30T00:00:49.397Z,23.70
2019-01-30T00:01:49.387Z,26.60
2019-01-30T00:02:49.378Z,22.80
2019-01-30T00:03:49.362Z,23.40
2019-01-30T00:04:49.352Z,21.10
2019-01-30T00:05:49.343Z,21.80
2019-01-30T00:06:49.330Z,20.50
2019-01-30T00:07:49.316Z,23.00
2019-01-30T00:08:49.360Z,25.90
2019-01-30T00:09:49.295Z,22.70
2019-01-30T00:10:49.284Z,23.00
2019-01-30T00:11:49.273Z,24.60
2019-01-30T00:12:49.280Z,23.70
2019-01-30T00:13:49.256Z,22.60
2019-01-30T00:14:49.239Z,26.60
2019-01-30T00:15:56.035Z,26.20
2019-01-30T00:16:49.216Z,27.10
2019-01-30T00:17:49.209Z,24.70
2019-01-30T00:18:49.193Z,27.50
2019-01-30T00:19:49.181Z,26.00
2019-01-30T00:20:49.172Z,27.70
2019-01-30T00:21:49.158Z,25.70
2019-01-30T00:22:49.146Z,26.10
2019-01-30T00:23:49.136Z,27.60
2019-01-30T00:24:49.126Z,27.40
2019-01-30T00:25:49.112Z,28.40
2019-01-30T00:26:49.101Z,26.80
2019-01-30T00:27:49.106Z,29.20
2019-01-30T00:28:49.079Z,31.40
2019-01-30T00:29:49.070Z,27.30
2019-01-30T00:30:49.052Z,28.40
2019-01-30T00:31:49.049Z,30.20
2019-01-30T00:32:49.087Z,30.30
2019-01-30T00:33:49.155Z,28.90
2019-01-30T00:34:49.235Z,28.60
2019-01-30T00:35:48.998Z,32.20
2019-01-30T00:36:48.986Z,27.30
2019-01-30T00:37:48.973Z,29.70
2019-01-30T00:38:48.964Z,35.10
2019-01-30T00:39:48.950Z,30.80
2019-01-30T00:40:48.947Z,32.10
2019-01-30T00:41:48.927Z,35.10
2019-01-30T00:42:48.914Z,31.60
2019-01-30T00:43:48.904Z,31.30
2019-01-30T00:44:48.892Z,29.00
2019-01-30T00:45:48.879Z,33.60
2019-01-30T00:46:48.868Z,28.50
2019-01-30T00:47:48.857Z,30.70
2019-01-30T00:48:48.844Z,32.30
2019-01-30T00:49:48.832Z,31.50
2019-01-30T00:50:48.821Z,36.20
2019-01-30T00:51:48.811Z,34.90
2019-01-30T00:52:48.798Z,36.00
2019-01-30T00:53:48.786Z,34.80
2019-01-30T00:54:48.791Z,34.90
2019-01-30T00:55:48.762Z,32.50
2019-01-30T00:56:48.750Z,32.10
2019-01-30T00:57:48.739Z,34.10
2019-01-30T00:58:48.727Z,36.60
2019-01-30T00:59:48.716Z,35.20
2019-01-30T01:00:48.702Z,36.10
2019-01-30T01:01:48.705Z,40.10
2019-01-30T01:02:48.680Z,37.40
2019-01-30T01:03:48.668Z,36.70
2019-01-30T01:04:48.656Z,33.20
2019-01-30T01:05:48.762Z,41.90
2019-01-30T01:06:48.806Z,39.60
2019-01-30T01:07:48.622Z,42.70
2019-01-30T01:08:48.611Z,41.60
2019-01-30T01:09:48.593Z,35.50
2019-01-30T01:10:48.585Z,42.40
2019-01-30T01:11:48.575Z,40.80
2019-01-30T01:12:48.571Z,41.30
2019-01-30T01:13:48.550Z,38.90
2019-01-30T01:14:48.539Z,42.00
2019-01-30T01:15:48.526Z,39.70
2019-01-30T01:16:48.517Z,48.30
2019-01-30T01:17:48.504Z,40.00
2019-01-30T01:18:48.490Z,42.80
2019-01-30T01:19:48.480Z,38.50
2019-01-30T01:20:48.467Z,43.50
2019-01-30T01:21:48.456Z,39.20
2019-01-30T01:22:48.443Z,40.60
2019-01-30T01:23:48.432Z,41.90
2019-01-30T01:24:48.420Z,41.50
2019-01-30T01:25:48.408Z,43.30
2019-01-30T01:26:48.398Z,44.40
2019-01-30T01:27:48.385Z,39.70
2019-01-30T01:28:48.370Z,46.10
2019-01-30T01:29:48.359Z,40.40
2019-01-30T01:30:48.345Z,42.90
2019-01-30T01:31:48.335Z,44.80
2019-01-30T01:32:48.323Z,45.10
2019-01-30T01:33:48.388Z,42.70
2019-01-30T01:34:48.299Z,38.30
2019-01-30T01:35:48.288Z,43.80
2019-01-30T01:36:48.277Z,39.30
2019-01-30T01:37:48.263Z,37.70
2019-01-30T01:38:48.249Z,39.10
2019-01-30T01:39:50.863Z,44.60
2019-01-30T01:40:48.228Z,40.00
2019-01-30T01:41:48.220Z,40.00
2019-01-30T01:42:48.204Z,44.30
2019-01-30T01:43:48.192Z,41.10
2019-01-30T01:44:48.178Z,40.40
2019-01-30T01:45:48.167Z,45.00
2019-01-30T01:46:48.153Z,40.40
2019-01-30T01:47:48.142Z,42.80
2019-01-30T01:48:48.131Z,42.90
2019-01-30T01:49:48.119Z,42.30
2019-01-30T01:50:48.106Z,40.20
2019-01-30T01:51:48.095Z,37.00
2019-01-30T01:52:48.083Z,45.50
2019-01-30T01:53:48.073Z,43.10
2019-01-30T01:54:48.058Z,43.50
2019-01-30T01:55:48.048Z,39.10
2019-01-30T01:56:48.036Z,42.50
2019-01-30T01:57:48.022Z,39.70
2019-01-30T01:58:48.009Z,37.70
2019-01-30T01:59:47.997Z,44.90
2019-01-30T02:00:47.987Z,40.30
2019-01-30T02:01:47.975Z,41.80
2019-01-30T02:02:47.962Z,46.70
2019-01-30T02:03:47.950Z,44.00
2019-01-30T02:04:47.937Z,42.90
2019-01-30T02:05:47.928Z,46.30
2019-01-30T02:06:47.915Z,48.50
2019-01-30T02:07:47.901Z,49.10
2019-01-30T02:08:47.890Z,44.70
2019-01-30T02:09:47.881Z,47.90
2019-01-30T02:10:47.867Z,46.80
2019-01-30T02:11:47.853Z,46.80
2019-01-30T02:12:47.841Z,45.30
2019-01-30T02:13:47.830Z,44.60
2019-01-30T02:14:47.817Z,46.50
2019-01-30T02:15:47.804Z,46.50
2019-01-30T02:16:47.792Z,49.30
2019-01-30T02:17:47.781Z,45.80
2019-01-30T02:18:47.767Z,48.30
2019-01-30T02:19:47.759Z,46.90
2019-01-30T02:20:47.745Z,49.50
2019-01-30T02:21:47.734Z,45.50
2019-01-30T02:22:47.717Z,43.20
2019-01-30T02:23:47.710Z,42.40
2019-01-30T02:24:47.698Z,44.80
2019-01-30T02:25:47.682Z,43.00
2019-01-30T02:26:47.675Z,46.10
2019-01-30T02:27:47.661Z,47.00
2019-01-30T02:28:47.646Z,47.10
2019-01-30T02:29:47.634Z,46.00
2019-01-30T02:30:47.918Z,49.30
2019-01-30T02:31:47.609Z,45.90
2019-01-30T02:32:47.596Z,49.30
2019-01-30T02:33:47.587Z,47.00
2019-01-30T02:34:47.595Z,51.40
2019-01-30T02:35:47.561Z,49.40
2019-01-30T02:36:47.547Z,50.70
2019-01-30T02:37:47.535Z,47.00
2019-01-30T02:38:47.523Z,54.50
2019-01-30T02:39:47.512Z,54.80
2019-01-30T02:40:47.505Z,54.40
2019-01-30T02:41:47.487Z,51.50
2019-01-30T02:42:47.474Z,53.80
2019-01-30T02:43:47.462Z,54.10
2019-01-30T02:44:47.495Z,53.10
2019-01-30T02:45:47.438Z,52.90
2019-01-30T02:46:47.429Z,60.20
2019-01-30T02:47:47.415Z,57.50
2019-01-30T02:48:47.400Z,59.90
2019-01-30T02:49:47.388Z,57.50
2019-01-30T02:50:47.377Z,59.80
2019-01-30T02:51:47.370Z,55.70
2019-01-30T02:52:47.350Z,58.30
2019-01-30T02:53:47.343Z,61.40
2019-01-30T02:54:47.330Z,66.10
2019-01-30T02:55:47.313Z,56.70
2019-01-30T02:56:47.301Z,62.90
2019-01-30T02:57:47.291Z,60.80
2019-01-30T02:58:47.278Z,61.00
2019-01-30T02:59:47.275Z,61.30
2019-01-30T03:00:58.508Z,61.50
2019-01-30T03:01:47.246Z,63.40
2019-01-30T03:02:47.227Z,59.20
2019-01-30T03:03:47.214Z,58.10
2019-01-30T03:04:47.203Z,61.80
2019-01-30T03:05:47.190Z,59.30
2019-01-30T03:06:47.177Z,56.30
2019-01-30T03:07:47.166Z,58.00
2019-01-30T03:08:47.153Z,57.50
2019-01-30T03:09:47.141Z,54.80
2019-01-30T03:10:47.128Z,54.90
2019-01-30T03:11:47.114Z,57.20
2019-01-30T03:12:47.103Z,51.30
2019-01-30T03:13:47.108Z,52.70
2019-01-30T03:14:47.076Z,52.70
2019-01-30T03:15:47.068Z,53.20
2019-01-30T03:16:47.068Z,52.80
2019-01-30T03:17:47.040Z,49.10
2019-01-30T03:18:47.036Z,50.80
2019-01-30T03:19:47.016Z,55.40
2019-01-30T03:20:47.003Z,56.50
2019-01-30T03:21:46.991Z,55.40
2019-01-30T03:22:46.976Z,56.10
2019-01-30T03:23:46.965Z,56.30
2019-01-30T03:24:46.953Z,49.50
2019-01-30T03:25:46.943Z,49.90
2019-01-30T03:26:46.934Z,47.60
2019-01-30T03:27:46.919Z,46.40
2019-01-30T03:28:46.903Z,44.80
2019-01-30T03:29:46.889Z,43.30
2019-01-30T03:30:46.877Z,46.00
2019-01-30T03:31:46.864Z,40.30
2019-01-30T03:32:46.851Z,42.70
2019-01-30T03:33:46.838Z,41.40
2019-01-30T03:34:46.824Z,39.10
2019-01-30T03:35:46.813Z,41.70
2019-01-30T03:36:46.799Z,42.70
2019-01-30T03:37:46.788Z,42.00
2019-01-30T03:38:46.776Z,38.30
2019-01-30T03:39:46.760Z,42.40
2019-01-30T03:40:46.749Z,41.50
2019-01-30T03:41:46.737Z,39.40
2019-01-30T03:42:46.858Z,36.20
2019-01-30T03:43:46.710Z,41.00
2019-01-30T03:44:46.711Z,40.70
2019-01-30T03:45:46.691Z,39.20
2019-01-30T03:46:46.673Z,39.90
2019-01-30T03:47:46.660Z,40.80
2019-01-30T03:48:46.647Z,42.50
2019-01-30T03:49:46.636Z,41.50
2019-01-30T03:50:46.619Z,42.50
2019-01-30T03:51:46.608Z,41.60
2019-01-30T03:52:46.594Z,42.00
2019-01-30T03:53:46.582Z,41.60
2019-01-30T03:54:46.570Z,41.70
2019-01-30T03:55:46.555Z,42.50
2019-01-30T03:56:46.543Z,42.30
2019-01-30T03:57:46.531Z,40.10
2019-01-30T03:58:46.516Z,42.20
2019-01-30T03:59:46.505Z,40.60
2019-01-30T04:00:46.496Z,41.40
2019-01-30T04:01:46.478Z,40.60
2019-01-30T04:02:46.468Z,40.30
2019-01-30T04:03:46.455Z,44.30
2019-01-30T04:04:46.439Z,41.40
2019-01-30T04:05:46.427Z,39.40
2019-01-30T04:06:46.413Z,40.50
2019-01-30T04:07:46.403Z,41.80
2019-01-30T04:08:46.391Z,43.60
2019-01-30T04:09:46.375Z,40.30
2019-01-30T04:10:46.363Z,38.80
2019-01-30T04:11:46.350Z,42.10
2019-01-30T04:12:46.338Z,37.60
2019-01-30T04:13:46.321Z,39.70
2019-01-30T04:14:46.316Z,40.90
2019-01-30T04:15:46.303Z,40.80
2019-01-30T04:16:46.283Z,39.50
2019-01-30T04:17:46.270Z,40.50
2019-01-30T04:18:46.258Z,39.80
2019-01-30T04:19:46.243Z,42.50
2019-01-30T04:20:46.244Z,41.20
2019-01-30T04:21:46.218Z,42.00
2019-01-30T04:22:46.206Z,40.20
2019-01-30T04:23:46.191Z,39.90
2019-01-30T04:24:46.178Z,39.50
2019-01-30T04:25:46.167Z,39.40
2019-01-30T04:26:46.146Z,40.60
2019-01-30T04:27:46.138Z,40.60
2019-01-30T04:28:46.134Z,40.60
2019-01-30T04:29:46.114Z,37.90
2019-01-30T04:30:46.099Z,39.20
2019-01-30T04:31:46.086Z,39.50
2019-01-30T04:32:46.071Z,37.20
2019-01-30T04:33:46.060Z,40.00
2019-01-30T04:34:46.047Z,40.20
2019-01-30T04:35:46.034Z,39.70
2019-01-30T04:36:46.023Z,39.50
2019-01-30T04:37:46.009Z,37.10
2019-01-30T04:38:45.994Z,36.50
2019-01-30T04:39:45.980Z,36.10
2019-01-30T04:40:45.967Z,37.40
2019-01-30T04:41:45.960Z,36.60
2019-01-30T04:42:45.941Z,38.80
2019-01-30T04:43:45.926Z,38.40
2019-01-30T04:44:45.913Z,38.50
2019-01-30T04:45:45.900Z,40.30
2019-01-30T04:46:45.888Z,37.30
2019-01-30T04:47:45.876Z,37.00
2019-01-30T04:48:45.862Z,41.60
2019-01-30T04:49:45.848Z,40.00
2019-01-30T04:50:45.836Z,35.00
2019-01-30T04:51:45.823Z,36.30
2019-01-30T04:52:45.810Z,35.40
2019-01-30T04:53:45.799Z,43.20
2019-01-30T04:54:45.782Z,39.10
2019-01-30T04:55:45.847Z,38.40
2019-01-30T04:56:45.758Z,38.00
2019-01-30T04:57:45.748Z,36.30
2019-01-30T04:58:45.743Z,37.60
2019-01-30T04:59:45.729Z,32.60
2019-01-30T05:00:45.703Z,36.10
2019-01-30T05:01:49.687Z,35.00
2019-01-30T05:02:45.682Z,32.50
2019-01-30T05:03:45.668Z,36.80
2019-01-30T05:04:45.653Z,33.80
2019-01-30T05:05:45.640Z,31.60
2019-01-30T05:06:45.625Z,35.90
2019-01-30T05:07:45.619Z,31.70
2019-01-30T05:08:45.600Z,34.70
2019-01-30T05:09:45.585Z,30.40
2019-01-30T05:10:45.572Z,29.40
2019-01-30T05:11:45.561Z,30.40
2019-01-30T05:12:45.548Z,26.90
2019-01-30T05:13:45.533Z,30.10
2019-01-30T05:14:45.520Z,31.80
2019-01-30T05:15:45.505Z,27.80
2019-01-30T05:16:45.493Z,31.90
2019-01-30T05:17:45.482Z,30.20
2019-01-30T05:18:45.468Z,28.40
2019-01-30T05:19:45.454Z,31.30
2019-01-30T05:20:45.440Z,28.50
2019-01-30T05:21:45.428Z,28.40
2019-01-30T05:22:45.414Z,29.90
2019-01-30T05:23:45.407Z,27.90
2019-01-30T05:24:45.391Z,27.70
2019-01-30T05:25:45.375Z,28.60
2019-01-30T05:26:45.360Z,28.50
2019-01-30T05:27:45.350Z,27.80
2019-01-30T05:28:45.336Z,27.30
2019-01-30T05:29:45.322Z,28.40
2019-01-30T05:30:45.308Z,27.40
2019-01-30T05:31:45.296Z,26.50
2019-01-30T05:32:45.287Z,26.80
2019-01-30T05:33:45.268Z,26.30
2019-01-30T05:34:45.253Z,25.80
2019-01-30T05:35:45.241Z,22.50
2019-01-30T05:36:45.230Z,26.90
2019-01-30T05:37:45.215Z,30.20
2019-01-30T05:38:45.203Z,25.80
2019-01-30T05:39:45.193Z,27.10
2019-01-30T05:40:45.176Z,25.50
2019-01-30T05:41:45.165Z,23.60
2019-01-30T05:42:45.158Z,26.40
2019-01-30T05:43:45.136Z,27.10
2019-01-30T05:44:45.124Z,26.40
2019-01-30T05:45:45.110Z,24.60
2019-01-30T05:46:45.096Z,26.20
2019-01-30T05:47:45.084Z,27.40
2019-01-30T05:48:45.071Z,24.90
2019-01-30T05:49:45.066Z,24.20
2019-01-30T05:50:45.045Z,25.50
2019-01-30T05:51:45.031Z,24.00
2019-01-30T05:52:45.017Z,27.40
2019-01-30T05:53:45.008Z,24.70
2019-01-30T05:54:44.991Z,25.50
2019-01-30T05:55:44.978Z,24.60
2019-01-30T05:56:44.968Z,26.10
2019-01-30T05:57:44.953Z,24.10
2019-01-30T05:58:44.940Z,24.60
2019-01-30T05:59:44.926Z,23.10
2019-01-30T06:00:44.912Z,24.10
2019-01-30T06:01:44.899Z,22.90
2019-01-30T06:02:44.888Z,22.40
2019-01-30T06:03:44.875Z,24.10
2019-01-30T06:04:44.861Z,22.40
2019-01-30T06:05:44.847Z,25.00
2019-01-30T06:06:44.835Z,23.60
2019-01-30T06:07:44.819Z,24.00
2019-01-30T06:08:44.811Z,25.10
2019-01-30T06:09:44.799Z,25.20
2019-01-30T06:10:44.782Z,24.20
2019-01-30T06:11:44.769Z,23.00
2019-01-30T06:12:44.756Z,24.50
2019-01-30T06:13:44.742Z,26.50
2019-01-30T06:14:44.733Z,26.10
2019-01-30T06:15:44.717Z,27.60
2019-01-30T06:16:44.713Z,26.20
2019-01-30T06:17:44.693Z,25.10
2019-01-30T06:18:44.677Z,28.40
2019-01-30T06:19:44.664Z,24.30
2019-01-30T06:20:44.651Z,25.70
2019-01-30T06:21:44.639Z,24.10
2019-01-30T06:22:44.623Z,25.80
2019-01-30T06:23:44.612Z,26.50
2019-01-30T06:24:44.599Z,24.30
2019-01-30T06:25:44.586Z,25.60
2019-01-30T06:26:44.572Z,24.10
2019-01-30T06:27:44.561Z,24.50
2019-01-30T06:28:44.547Z,24.40
2019-01-30T06:29:44.533Z,22.40
2019-01-30T06:30:44.521Z,24.80
2019-01-30T06:31:44.505Z,22.50
2019-01-30T06:32:44.494Z,24.70
2019-01-30T06:33:44.484Z,22.10
2019-01-30T06:34:44.469Z,22.80
2019-01-30T06:35:44.455Z,24.00
2019-01-30T06:36:44.441Z,22.90
2019-01-30T06:37:44.428Z,22.10
2019-01-30T06:38:44.500Z,24.10
2019-01-30T06:39:44.404Z,23.80
2019-01-30T06:40:44.389Z,22.10
2019-01-30T06:41:44.376Z,21.90
2019-01-30T06:42:44.364Z,23.60
2019-01-30T06:43:44.356Z,22.30
2019-01-30T06:44:44.340Z,24.00
2019-01-30T06:45:44.324Z,21.40
2019-01-30T06:46:44.312Z,21.30
2019-01-30T06:47:44.300Z,22.30
2019-01-30T06:48:44.288Z,22.10
2019-01-30T06:49:44.272Z,21.00
2019-01-30T06:50:44.258Z,22.80
2019-01-30T06:51:44.254Z,21.70
2019-01-30T06:52:44.235Z,22.30
2019-01-30T06:53:44.219Z,22.70
2019-01-30T06:54:44.210Z,21.60
2019-01-30T06:55:44.194Z,24.00
2019-01-30T06:56:44.183Z,20.20
2019-01-30T06:57:44.169Z,20.00
2019-01-30T06:58:44.154Z,22.20
2019-01-30T06:59:44.141Z,19.70
2019-01-30T07:00:44.129Z,21.90
2019-01-30T07:01:44.119Z,20.50
2019-01-30T07:02:44.108Z,21.20
2019-01-30T07:03:44.090Z,20.00
2019-01-30T07:04:44.079Z,20.60
2019-01-30T07:05:44.064Z,20.20
2019-01-30T07:06:44.050Z,20.00
2019-01-30T07:07:44.037Z,19.60
2019-01-30T07:08:44.024Z,16.70
2019-01-30T07:09:44.013Z,17.10
2019-01-30T07:10:43.999Z,16.40
2019-01-30T07:11:43.986Z,18.00
2019-01-30T07:12:43.973Z,15.80
2019-01-30T07:13:43.961Z,16.80
2019-01-30T07:14:43.947Z,15.80
2019-01-30T07:15:43.934Z,14.90
2019-01-30T07:16:43.921Z,15.20
2019-01-30T07:17:43.910Z,14.50
2019-01-30T07:18:43.900Z,15.50
2019-01-30T07:19:43.974Z,15.30
2019-01-30T07:20:43.870Z,16.90
2019-01-30T07:21:43.855Z,13.50
2019-01-30T07:22:43.842Z,16.50
2019-01-30T07:23:43.831Z,15.40
2019-01-30T07:24:43.817Z,16.50
2019-01-30T07:25:43.806Z,16.70
2019-01-30T07:26:43.790Z,14.60
2019-01-30T07:27:43.775Z,15.50
2019-01-30T07:28:43.767Z,14.60
2019-01-30T07:29:43.754Z,16.00
2019-01-30T07:30:43.737Z,14.60
2019-01-30T07:31:43.731Z,15.50
2019-01-30T07:32:43.716Z,15.80
2019-01-30T07:33:43.702Z,16.10
2019-01-30T07:34:43.688Z,17.30
2019-01-30T07:35:43.673Z,16.00
2019-01-30T07:36:43.661Z,14.40
2019-01-30T07:37:43.647Z,16.40
2019-01-30T07:38:43.633Z,15.80
2019-01-30T07:39:43.622Z,16.70
2019-01-30T07:40:43.609Z,15.30
2019-01-30T07:41:43.599Z,15.10
2019-01-30T07:42:43.585Z,16.60
2019-01-30T07:43:43.570Z,15.50
2019-01-30T07:44:50.571Z,16.60
2019-01-30T07:45:43.559Z,16.10
2019-01-30T07:46:43.529Z,16.30
2019-01-30T07:47:43.516Z,17.00
2019-01-30T07:48:43.508Z,15.50
2019-01-30T07:49:43.509Z,18.40
2019-01-30T07:50:43.484Z,17.10
2019-01-30T07:51:43.467Z,17.40
2019-01-30T07:52:43.453Z,16.40
2019-01-30T07:53:43.440Z,14.50
2019-01-30T07:54:43.680Z,16.50
2019-01-30T07:55:43.619Z,15.80
2019-01-30T07:56:43.400Z,14.70
2019-01-30T07:57:43.388Z,15.70
2019-01-30T07:58:43.375Z,15.70
2019-01-30T07:59:43.455Z,15.90
2019-01-30T08:00:43.348Z,15.90
2019-01-30T08:01:43.337Z,16.60
2019-01-30T08:02:52.606Z,16.60
2019-01-30T08:03:43.310Z,16.50
2019-01-30T08:04:43.297Z,18.60
2019-01-30T08:05:43.284Z,17.20
2019-01-30T08:06:43.272Z,16.80
2019-01-30T08:07:43.257Z,18.00
2019-01-30T08:08:43.244Z,18.60
2019-01-30T08:09:43.232Z,17.70
2019-01-30T08:10:43.218Z,17.00
2019-01-30T08:11:43.273Z,18.30
2019-01-30T08:12:43.197Z,20.40
2019-01-30T08:13:43.180Z,20.20
2019-01-30T08:14:43.169Z,20.30
2019-01-30T08:15:43.155Z,17.80
2019-01-30T08:16:43.141Z,17.80
2019-01-30T08:17:43.129Z,18.50
2019-01-30T08:18:43.116Z,19.30
2019-01-30T08:19:43.104Z,18.80
2019-01-30T08:20:43.092Z,20.40
2019-01-30T08:21:43.081Z,20.40
2019-01-30T08:22:43.195Z,20.00
2019-01-30T08:23:43.374Z,20.60
2019-01-30T08:24:43.109Z,22.00
2019-01-30T08:25:43.225Z,19.40
2019-01-30T08:26:43.218Z,19.10
2019-01-30T08:27:43.108Z,21.90
2019-01-30T08:28:43.324Z,20.70
2019-01-30T08:29:42.986Z,18.90
2019-01-30T08:30:43.289Z,22.40
2019-01-30T08:31:42.988Z,19.70
2019-01-30T08:32:43.055Z,21.10
2019-01-30T08:33:42.991Z,22.90
2019-01-30T08:34:42.912Z,24.10
2019-01-30T08:35:42.900Z,19.20
2019-01-30T08:36:42.887Z,20.20
2019-01-30T08:37:42.877Z,20.80
2019-01-30T08:38:42.865Z,20.70
2019-01-30T08:39:42.850Z,20.10
2019-01-30T08:40:42.836Z,20.70
2019-01-30T08:41:42.830Z,21.20
2019-01-30T08:42:42.814Z,20.20
2019-01-30T08:43:42.804Z,20.20
2019-01-30T08:44:46.991Z,22.00
2019-01-30T08:45:42.776Z,19.10
2019-01-30T08:46:42.771Z,19.80
2019-01-30T08:47:42.751Z,23.00
2019-01-30T08:48:42.738Z,19.00
2019-01-30T08:49:42.732Z,21.10
2019-01-30T08:50:42.974Z,20.00
2019-01-30T08:51:42.762Z,20.70
2019-01-30T08:52:42.689Z,20.10
2019-01-30T08:53:42.678Z,22.10
2019-01-30T08:54:42.665Z,17.70
2019-01-30T08:55:42.656Z,19.40
2019-01-30T08:56:52.369Z,19.80
2019-01-30T08:57:42.745Z,19.50
2019-01-30T08:58:42.658Z,18.50
2019-01-30T08:59:42.716Z,17.40
2019-01-30T09:00:42.624Z,21.00
2019-01-30T09:01:42.774Z,19.40
2019-01-30T09:02:42.670Z,19.40
2019-01-30T09:03:42.562Z,19.70
2019-01-30T09:04:43.005Z,21.70
2019-01-30T09:05:42.535Z,18.80
2019-01-30T09:06:42.596Z,21.00
2019-01-30T09:07:44.275Z,21.20
2019-01-30T09:08:42.492Z,20.70
2019-01-30T09:09:42.480Z,18.60
2019-01-30T09:10:42.467Z,19.20
2019-01-30T09:11:42.458Z,19.00
2019-01-30T09:12:42.445Z,19.30
2019-01-30T09:13:42.433Z,19.90
2019-01-30T09:14:42.422Z,18.20
2019-01-30T09:15:42.407Z,21.00
2019-01-30T09:16:42.397Z,19.70
2019-01-30T09:17:42.386Z,18.60
2019-01-30T09:18:42.373Z,18.30
2019-01-30T09:19:42.360Z,20.00
2019-01-30T09:20:42.348Z,18.90
2019-01-30T09:21:42.337Z,17.30
2019-01-30T09:22:42.323Z,17.70
2019-01-30T09:23:42.314Z,19.50
2019-01-30T09:24:42.300Z,20.00
2019-01-30T09:25:42.288Z,20.80
2019-01-30T09:26:42.281Z,19.30
2019-01-30T09:27:42.268Z,19.90
2019-01-30T09:28:42.305Z,17.70
2019-01-30T09:29:42.241Z,18.40
2019-01-30T09:30:42.427Z,17.80
2019-01-30T09:31:42.256Z,18.50
2019-01-30T09:32:42.399Z,18.70
2019-01-30T09:33:42.194Z,17.70
2019-01-30T09:34:42.384Z,18.40
2019-01-30T09:35:42.178Z,17.40
2019-01-30T09:36:42.164Z,19.60
2019-01-30T09:37:42.151Z,19.70
2019-01-30T09:38:42.172Z,18.40
2019-01-30T09:39:42.123Z,17.20
2019-01-30T09:40:42.113Z,19.40
2019-01-30T09:41:42.381Z,18.70
2019-01-30T09:42:42.137Z,17.90
2019-01-30T09:43:42.076Z,17.90
2019-01-30T09:44:42.067Z,19.90
2019-01-30T09:45:42.052Z,19.50
2019-01-30T09:46:42.040Z,19.40
2019-01-30T09:47:42.029Z,19.00
2019-01-30T09:48:42.045Z,19.70
2019-01-30T09:49:42.187Z,18.10
2019-01-30T09:50:42.105Z,17.60
2019-01-30T09:51:42.092Z,17.30
2019-01-30T09:52:41.972Z,19.90
2019-01-30T09:53:42.392Z,18.20
2019-01-30T09:54:41.951Z,19.30
2019-01-30T09:55:41.937Z,18.90
2019-01-30T09:56:41.927Z,17.10
2019-01-30T09:57:41.914Z,18.30
2019-01-30T09:58:41.903Z,16.60
2019-01-30T09:59:41.891Z,17.30
2019-01-30T10:00:41.880Z,18.20
2019-01-30T10:01:41.869Z,16.50
2019-01-30T10:02:41.855Z,16.60
2019-01-30T10:03:41.851Z,18.60
2019-01-30T10:04:41.852Z,15.70
2019-01-30T10:05:41.977Z,14.60
2019-01-30T10:06:41.817Z,17.80
2019-01-30T10:07:41.799Z,15.30
2019-01-30T10:08:41.808Z,16.70
2019-01-30T10:09:41.775Z,17.00
2019-01-30T10:10:41.764Z,19.50
2019-01-30T10:11:41.751Z,18.90
2019-01-30T10:12:41.741Z,17.90
2019-01-30T10:13:41.731Z,16.80
2019-01-30T10:14:41.720Z,16.60
2019-01-30T10:15:41.715Z,15.10
2019-01-30T10:16:41.697Z,14.10
2019-01-30T10:17:41.685Z,13.10
2019-01-30T10:18:41.678Z,12.70
2019-01-30T10:19:41.938Z,14.40
2019-01-30T10:20:41.650Z,15.80
2019-01-30T10:21:41.640Z,15.10
2019-01-30T10:22:41.727Z,14.80
2019-01-30T10:23:41.636Z,13.60
2019-01-30T10:24:41.818Z,13.00
2019-01-30T10:25:41.664Z,14.30
2019-01-30T10:26:41.581Z,16.20
2019-01-30T10:27:41.574Z,14.60
2019-01-30T10:28:41.560Z,16.00
2019-01-30T10:29:41.550Z,12.80
2019-01-30T10:30:41.541Z,12.80
2019-01-30T10:31:41.528Z,14.70
2019-01-30T10:32:41.516Z,13.10
2019-01-30T10:33:46.577Z,13.60
2019-01-30T10:34:41.756Z,12.50
2019-01-30T10:35:41.478Z,14.40
2019-01-30T10:36:41.471Z,12.30
2019-01-30T10:37:41.460Z,13.50
2019-01-30T10:38:41.457Z,11.40
2019-01-30T10:39:41.436Z,12.20
2019-01-30T10:40:41.428Z,12.70
2019-01-30T10:41:41.416Z,12.50
2019-01-30T10:42:41.401Z,10.90
2019-01-30T10:43:41.393Z,11.50
2019-01-30T10:44:41.383Z,12.80
2019-01-30T10:45:41.374Z,12.40
2019-01-30T10:46:41.358Z,12.30
2019-01-30T10:47:41.346Z,13.60
2019-01-30T10:48:41.337Z,11.40
2019-01-30T10:49:41.332Z,10.90
2019-01-30T10:50:41.312Z,10.20
2019-01-30T10:51:41.304Z,10.90
2019-01-30T10:52:41.291Z,11.20
2019-01-30T10:53:41.296Z,11.60
2019-01-30T10:54:41.268Z,11.80
2019-01-30T10:55:41.258Z,11.00
2019-01-30T10:56:41.246Z,11.70
2019-01-30T10:57:41.236Z,9.90
2019-01-30T10:58:41.225Z,10.00
2019-01-30T10:59:41.214Z,9.20
2019-01-30T11:00:41.202Z,10.30
2019-01-30T11:01:41.192Z,9.70
2019-01-30T11:02:41.180Z,10.70
2019-01-30T11:03:41.168Z,9.30
2019-01-30T11:04:41.158Z,11.90
2019-01-30T11:05:41.246Z,9.70
2019-01-30T11:06:41.135Z,10.40
2019-01-30T11:07:41.201Z,10.90
2019-01-30T11:08:41.114Z,10.30
2019-01-30T11:09:41.146Z,10.40
2019-01-30T11:10:41.090Z,9.40
2019-01-30T11:11:41.285Z,10.90
2019-01-30T11:12:41.069Z,11.20
2019-01-30T11:13:41.061Z,9.10
2019-01-30T11:14:41.657Z,9.50
2019-01-30T11:15:41.037Z,10.10
2019-01-30T11:16:41.024Z,8.40
2019-01-30T11:17:41.013Z,10.70
2019-01-30T11:18:41.006Z,10.60
2019-01-30T11:19:40.992Z,10.00
2019-01-30T11:20:40.982Z,8.00
2019-01-30T11:21:40.969Z,10.40
2019-01-30T11:22:40.958Z,9.90
2019-01-30T11:23:40.950Z,9.20
2019-01-30T11:24:40.937Z,8.90
2019-01-30T11:25:40.925Z,8.80
2019-01-30T11:26:40.914Z,11.80
2019-01-30T11:27:40.917Z,9.50
2019-01-30T11:28:40.894Z,9.60
2019-01-30T11:29:40.881Z,9.70
2019-01-30T11:30:40.873Z,10.70
2019-01-30T11:31:40.880Z,10.70
2019-01-30T11:32:40.848Z,11.00
2019-01-30T11:33:40.841Z,10.10
2019-01-30T11:34:40.828Z,10.70
2019-01-30T11:35:40.818Z,9.20
2019-01-30T11:36:41.067Z,11.20
2019-01-30T11:37:40.796Z,9.10
2019-01-30T11:38:41.022Z,8.80
2019-01-30T11:39:40.772Z,8.60
2019-01-30T11:40:40.763Z,10.10
2019-01-30T11:41:40.752Z,10.40
2019-01-30T11:42:40.741Z,8.30
2019-01-30T11:43:40.730Z,8.20
2019-01-30T11:44:40.721Z,8.30
2019-01-30T11:45:40.715Z,8.90
2019-01-30T11:46:40.699Z,8.40
2019-01-30T11:47:40.689Z,8.40
2019-01-30T11:48:40.677Z,8.40
2019-01-30T11:49:40.667Z,9.00
2019-01-30T11:50:40.659Z,9.40
2019-01-30T11:51:40.653Z,8.50
2019-01-30T11:52:40.636Z,9.00
2019-01-30T11:53:40.624Z,9.70
2019-01-30T11:54:40.613Z,8.20
2019-01-30T11:55:40.603Z,10.10
2019-01-30T11:56:40.592Z,8.90
2019-01-30T11:57:40.584Z,8.60
2019-01-30T11:58:40.572Z,9.80
2019-01-30T11:59:40.560Z,8.70
2019-01-30T12:00:40.552Z,9.40
2019-01-30T12:01:40.540Z,8.70
2019-01-30T12:02:47.730Z,9.70
2019-01-30T12:03:40.518Z,9.20
2019-01-30T12:04:40.510Z,9.40
2019-01-30T12:05:40.497Z,8.70
2019-01-30T12:06:40.490Z,11.00
2019-01-30T12:07:40.478Z,9.30
2019-01-30T12:08:40.471Z,9.10
2019-01-30T12:09:40.458Z,9.90
2019-01-30T12:10:40.449Z,9.90
2019-01-30T12:11:40.433Z,10.20
2019-01-30T12:12:40.429Z,9.00
2019-01-30T12:13:40.416Z,10.40
2019-01-30T12:14:40.403Z,10.60
2019-01-30T12:15:40.394Z,11.30
2019-01-30T12:16:40.383Z,10.30
2019-01-30T12:17:40.374Z,12.50
2019-01-30T12:18:40.361Z,10.90
2019-01-30T12:19:40.351Z,10.40
2019-01-30T12:20:40.347Z,10.70
2019-01-30T12:21:40.330Z,10.50
2019-01-30T12:22:40.325Z,10.90
2019-01-30T12:23:40.319Z,11.50
2019-01-30T12:24:40.308Z,12.30
2019-01-30T12:25:40.302Z,11.10
2019-01-30T12:26:40.278Z,11.10
2019-01-30T12:27:40.285Z,11.60
2019-01-30T12:28:40.258Z,11.10
2019-01-30T12:29:40.244Z,11.40
2019-01-30T12:30:40.234Z,10.00
2019-01-30T12:31:40.225Z,11.10
2019-01-30T12:32:40.213Z,10.30
2019-01-30T12:33:40.204Z,12.00
2019-01-30T12:34:40.190Z,11.60
2019-01-30T12:35:40.189Z,11.50
2019-01-30T12:36:40.174Z,11.40
2019-01-30T12:37:40.177Z,10.80
2019-01-30T12:38:40.148Z,12.60
2019-01-30T12:39:40.139Z,10.20
2019-01-30T12:40:40.128Z,12.20
2019-01-30T12:41:40.119Z,14.40
2019-01-30T12:42:40.249Z,11.00
2019-01-30T12:43:40.144Z,11.20
2019-01-30T12:44:40.322Z,11.70
2019-01-30T12:45:40.163Z,12.50
2019-01-30T12:46:40.086Z,13.10
2019-01-30T12:47:40.058Z,12.60
2019-01-30T12:48:40.045Z,11.90
2019-01-30T12:49:40.033Z,12.00
2019-01-30T12:50:40.027Z,11.00
2019-01-30T12:51:40.012Z,12.00
2019-01-30T12:52:40.002Z,10.40
2019-01-30T12:53:39.992Z,11.60
2019-01-30T12:54:39.981Z,11.50